sensor_id;sensor_type;location;lat;lon;timestamp;P1;durP1;ratioP1;P2;durP2;ratioP2
28766;SDS011;15921;52.034;20.650;2022-12-07T00:01:37;43.28;;;19.42;;
28766;SDS011;15921;52.034;20.650;2022-12-07T00:04:04;48.25;;;19.95;;
28766;SDS011;15921;52.034;20.650;2022-12-07T00:09:01;44.85;;;18.38;;
28766;SDS011;15921;52.034;20.650;2022-12-07T00:11:50;43.47;;;18.35;;
28766;SDS011;15921;52.034;20.650;2022-12-07T00:14:36;40.88;;;17.95;;
28766;SDS011;15921;52.034;20.650;2022-12-07T00:17:21;38.15;;;15.82;;
28766;SDS011;15921;52.034;20.650;2022-12-07T00:19:46;40.28;;;16.38;;
28766;SDS011;15921;52.034;20.650;2022-12-07T00:22:12;37.47;;;17.13;;
28766;SDS011;15921;52.034;20.650;2022-12-07T00:24:37;35.67;;;15.57;;
28766;SDS011;15921;52.034;20.650;2022-12-07T00:27:03;32.83;;;15.40;;
28766;SDS011;15921;52.034;20.650;2022-12-07T00:29:29;33.05;;;15.55;;
28766;SDS011;15921;52.034;20.650;2022-12-07T00:31:54;30.73;;;14.85;;
28766;SDS011;15921;52.034;20.650;2022-12-07T00:34:20;34.42;;;15.60;;
28766;SDS011;15921;52.034;20.650;2022-12-07T00:36:47;32.72;;;15.07;;
28766;SDS011;15921;52.034;20.650;2022-12-07T00:39:13;32.50;;;14.80;;
28766;SDS011;15921;52.034;20.650;2022-12-07T00:41:39;37.35;;;15.50;;
28766;SDS011;15921;52.034;20.650;2022-12-07T00:44:04;33.35;;;13.82;;
28766;SDS011;15921;52.034;20.650;2022-12-07T00:46:50;26.95;;;13.27;;
28766;SDS011;15921;52.034;20.650;2022-12-07T00:49:16;33.15;;;14.40;;
28766;SDS011;15921;52.034;20.650;2022-12-07T00:51:42;27.02;;;12.98;;
28766;SDS011;15921;52.034;20.650;2022-12-07T00:54:07;30.80;;;13.02;;
28766;SDS011;15921;52.034;20.650;2022-12-07T00:56:33;31.98;;;12.98;;
28766;SDS011;15921;52.034;20.650;2022-12-07T00:59:00;26.88;;;11.35;;
28766;SDS011;15921;52.034;20.650;2022-12-07T01:01:28;30.35;;;12.23;;
28766;SDS011;15921;52.034;20.650;2022-12-07T01:03:55;22.17;;;11.23;;
28766;SDS011;15921;52.034;20.650;2022-12-07T01:06:22;23.55;;;10.88;;
28766;SDS011;15921;52.034;20.650;2022-12-07T01:08:48;21.95;;;10.25;;
28766;SDS011;15921;52.034;20.650;2022-12-07T01:11:16;20.92;;;10.73;;
28766;SDS011;15921;52.034;20.650;2022-12-07T01:13:44;24.63;;;10.18;;
28766;SDS011;15921;52.034;20.650;2022-12-07T01:16:12;22.02;;;10.75;;
28766;SDS011;15921;52.034;20.650;2022-12-07T01:18:39;22.42;;;10.25;;
28766;SDS011;15921;52.034;20.650;2022-12-07T01:21:10;29.40;;;12.30;;
28766;SDS011;15921;52.034;20.650;2022-12-07T01:23:41;29.85;;;12.85;;
28766;SDS011;15921;52.034;20.650;2022-12-07T01:26:09;29.27;;;13.55;;
28766;SDS011;15921;52.034;20.650;2022-12-07T01:28:36;28.13;;;12.75;;
28766;SDS011;15921;52.034;20.650;2022-12-07T01:31:04;26.95;;;12.88;;
28766;SDS011;15921;52.034;20.650;2022-12-07T01:33:37;29.52;;;13.60;;
28766;SDS011;15921;52.034;20.650;2022-12-07T01:36:04;30.75;;;15.55;;
28766;SDS011;15921;52.034;20.650;2022-12-07T01:38:42;34.85;;;16.05;;
28766;SDS011;15921;52.034;20.650;2022-12-07T01:41:09;36.90;;;17.08;;
28766;SDS011;15921;52.034;20.650;2022-12-07T01:47:04;24.30;;;12.20;;
28766;SDS011;15921;52.034;20.650;2022-12-07T01:49:51;24.23;;;11.73;;
28766;SDS011;15921;52.034;20.650;2022-12-07T01:52:22;23.63;;;11.00;;
28766;SDS011;15921;52.034;20.650;2022-12-07T01:55:15;22.00;;;10.95;;
28766;SDS011;15921;52.034;20.650;2022-12-07T01:58:01;21.42;;;11.32;;
28766;SDS011;15921;52.034;20.650;2022-12-07T02:00:27;21.38;;;10.90;;
28766;SDS011;15921;52.034;20.650;2022-12-07T02:02:55;18.75;;;9.73;;
28766;SDS011;15921;52.034;20.650;2022-12-07T02:05:25;18.45;;;9.05;;
28766;SDS011;15921;52.034;20.650;2022-12-07T02:07:52;18.88;;;9.38;;
28766;SDS011;15921;52.034;20.650;2022-12-07T02:10:21;18.67;;;9.10;;
28766;SDS011;15921;52.034;20.650;2022-12-07T02:12:50;20.67;;;9.90;;
28766;SDS011;15921;52.034;20.650;2022-12-07T02:15:20;19.98;;;9.52;;
28766;SDS011;15921;52.034;20.650;2022-12-07T02:17:58;19.15;;;8.90;;
28766;SDS011;15921;52.034;20.650;2022-12-07T02:26:15;20.13;;;9.77;;
28766;SDS011;15921;52.034;20.650;2022-12-07T02:31:33;17.63;;;8.85;;
28766;SDS011;15921;52.034;20.650;2022-12-07T02:34:21;17.35;;;8.55;;
28766;SDS011;15921;52.034;20.650;2022-12-07T02:36:55;17.88;;;9.05;;
28766;SDS011;15921;52.034;20.650;2022-12-07T02:39:42;17.52;;;8.40;;
28766;SDS011;15921;52.034;20.650;2022-12-07T02:42:19;16.77;;;8.90;;
28766;SDS011;15921;52.034;20.650;2022-12-07T02:44:52;17.88;;;8.15;;
28766;SDS011;15921;52.034;20.650;2022-12-07T02:47:18;14.63;;;8.27;;
28766;SDS011;15921;52.034;20.650;2022-12-07T02:49:46;16.23;;;8.60;;
28766;SDS011;15921;52.034;20.650;2022-12-07T02:52:12;18.25;;;9.35;;
28766;SDS011;15921;52.034;20.650;2022-12-07T02:54:38;21.45;;;10.18;;
28766;SDS011;15921;52.034;20.650;2022-12-07T03:13:20;26.88;;;13.27;;
28766;SDS011;15921;52.034;20.650;2022-12-07T03:15:55;28.00;;;13.30;;
28766;SDS011;15921;52.034;20.650;2022-12-07T03:18:52;25.67;;;12.82;;
28766;SDS011;15921;52.034;20.650;2022-12-07T03:21:26;26.63;;;12.63;;
28766;SDS011;15921;52.034;20.650;2022-12-07T03:23:58;25.13;;;13.13;;
28766;SDS011;15921;52.034;20.650;2022-12-07T03:26:30;24.70;;;11.95;;
28766;SDS011;15921;52.034;20.650;2022-12-07T03:29:27;25.30;;;12.40;;
28766;SDS011;15921;52.034;20.650;2022-12-07T03:31:59;22.02;;;12.13;;
28766;SDS011;15921;52.034;20.650;2022-12-07T03:34:36;24.98;;;11.85;;
28766;SDS011;15921;52.034;20.650;2022-12-07T03:37:13;26.73;;;11.55;;
28766;SDS011;15921;52.034;20.650;2022-12-07T03:40:04;20.80;;;11.05;;
28766;SDS011;15921;52.034;20.650;2022-12-07T03:42:34;26.02;;;12.15;;
28766;SDS011;15921;52.034;20.650;2022-12-07T03:45:01;22.33;;;11.20;;
28766;SDS011;15921;52.034;20.650;2022-12-07T03:47:33;26.80;;;12.30;;
28766;SDS011;15921;52.034;20.650;2022-12-07T03:53:27;23.52;;;10.98;;
28766;SDS011;15921;52.034;20.650;2022-12-07T03:55:58;22.95;;;11.57;;
28766;SDS011;15921;52.034;20.650;2022-12-07T03:58:25;27.42;;;12.20;;
28766;SDS011;15921;52.034;20.650;2022-12-07T04:00:52;25.35;;;11.88;;
28766;SDS011;15921;52.034;20.650;2022-12-07T04:03:18;22.73;;;10.50;;
28766;SDS011;15921;52.034;20.650;2022-12-07T04:05:43;24.10;;;12.15;;
28766;SDS011;15921;52.034;20.650;2022-12-07T04:08:09;26.15;;;12.55;;
28766;SDS011;15921;52.034;20.650;2022-12-07T04:10:35;23.10;;;11.82;;
28766;SDS011;15921;52.034;20.650;2022-12-07T04:13:01;23.25;;;11.98;;
28766;SDS011;15921;52.034;20.650;2022-12-07T04:15:27;23.10;;;11.73;;
28766;SDS011;15921;52.034;20.650;2022-12-07T04:17:52;32.47;;;13.68;;
28766;SDS011;15921;52.034;20.650;2022-12-07T04:20:19;25.50;;;12.45;;
28766;SDS011;15921;52.034;20.650;2022-12-07T04:22:44;24.10;;;12.40;;
28766;SDS011;15921;52.034;20.650;2022-12-07T04:25:10;23.73;;;12.10;;
28766;SDS011;15921;52.034;20.650;2022-12-07T04:27:56;24.92;;;12.68;;
28766;SDS011;15921;52.034;20.650;2022-12-07T04:30:34;22.90;;;11.88;;
28766;SDS011;15921;52.034;20.650;2022-12-07T04:33:00;27.58;;;12.55;;
28766;SDS011;15921;52.034;20.650;2022-12-07T04:35:25;25.70;;;12.55;;
28766;SDS011;15921;52.034;20.650;2022-12-07T04:37:51;28.02;;;12.70;;
28766;SDS011;15921;52.034;20.650;2022-12-07T04:40:16;25.42;;;12.73;;
28766;SDS011;15921;52.034;20.650;2022-12-07T04:42:42;21.92;;;12.07;;
28766;SDS011;15921;52.034;20.650;2022-12-07T04:45:08;29.90;;;14.05;;
28766;SDS011;15921;52.034;20.650;2022-12-07T04:47:34;28.08;;;13.18;;
28766;SDS011;15921;52.034;20.650;2022-12-07T04:49:59;29.25;;;13.35;;
28766;SDS011;15921;52.034;20.650;2022-12-07T04:52:25;26.50;;;12.15;;
28766;SDS011;15921;52.034;20.650;2022-12-07T04:55:11;30.05;;;13.18;;
28766;SDS011;15921;52.034;20.650;2022-12-07T04:57:36;24.17;;;13.27;;
28766;SDS011;15921;52.034;20.650;2022-12-07T05:00:02;26.30;;;12.90;;
28766;SDS011;15921;52.034;20.650;2022-12-07T05:02:28;27.58;;;12.40;;
28766;SDS011;15921;52.034;20.650;2022-12-07T05:04:54;24.98;;;12.57;;
28766;SDS011;15921;52.034;20.650;2022-12-07T05:07:19;33.78;;;13.13;;
28766;SDS011;15921;52.034;20.650;2022-12-07T05:09:45;28.58;;;13.25;;
28766;SDS011;15921;52.034;20.650;2022-12-07T05:12:11;23.15;;;12.30;;
28766;SDS011;15921;52.034;20.650;2022-12-07T05:14:36;26.30;;;12.85;;
28766;SDS011;15921;52.034;20.650;2022-12-07T05:17:02;31.25;;;13.02;;
28766;SDS011;15921;52.034;20.650;2022-12-07T05:19:29;25.95;;;12.15;;
28766;SDS011;15921;52.034;20.650;2022-12-07T05:21:56;26.30;;;13.43;;
28766;SDS011;15921;52.034;20.650;2022-12-07T05:24:35;29.23;;;12.75;;
28766;SDS011;15921;52.034;20.650;2022-12-07T05:27:00;27.98;;;12.93;;
28766;SDS011;15921;52.034;20.650;2022-12-07T05:29:26;30.50;;;13.23;;
28766;SDS011;15921;52.034;20.650;2022-12-07T05:31:51;28.63;;;13.63;;
28766;SDS011;15921;52.034;20.650;2022-12-07T05:34:17;26.95;;;13.63;;
28766;SDS011;15921;52.034;20.650;2022-12-07T05:36:43;29.85;;;13.50;;
28766;SDS011;15921;52.034;20.650;2022-12-07T05:39:09;28.35;;;12.95;;
28766;SDS011;15921;52.034;20.650;2022-12-07T05:41:35;30.80;;;14.02;;
28766;SDS011;15921;52.034;20.650;2022-12-07T05:44:19;28.17;;;12.75;;
28766;SDS011;15921;52.034;20.650;2022-12-07T05:46:45;29.58;;;13.23;;
28766;SDS011;15921;52.034;20.650;2022-12-07T05:49:11;29.02;;;12.65;;
28766;SDS011;15921;52.034;20.650;2022-12-07T05:51:37;27.13;;;12.88;;
28766;SDS011;15921;52.034;20.650;2022-12-07T05:54:02;29.30;;;12.38;;
28766;SDS011;15921;52.034;20.650;2022-12-07T05:56:28;31.80;;;13.15;;
28766;SDS011;15921;52.034;20.650;2022-12-07T05:58:54;25.30;;;11.80;;
28766;SDS011;15921;52.034;20.650;2022-12-07T06:01:38;28.17;;;12.60;;
28766;SDS011;15921;52.034;20.650;2022-12-07T06:04:04;29.15;;;12.88;;
28766;SDS011;15921;52.034;20.650;2022-12-07T06:06:29;28.58;;;12.18;;
28766;SDS011;15921;52.034;20.650;2022-12-07T06:09:15;25.40;;;12.05;;
28766;SDS011;15921;52.034;20.650;2022-12-07T06:12:02;28.13;;;12.27;;
28766;SDS011;15921;52.034;20.650;2022-12-07T06:15:07;24.85;;;11.82;;
28766;SDS011;15921;52.034;20.650;2022-12-07T06:17:52;25.98;;;12.07;;
28766;SDS011;15921;52.034;20.650;2022-12-07T06:20:18;26.23;;;12.20;;
28766;SDS011;15921;52.034;20.650;2022-12-07T06:22:44;27.67;;;12.82;;
28766;SDS011;15921;52.034;20.650;2022-12-07T06:25:09;24.63;;;12.07;;
28766;SDS011;15921;52.034;20.650;2022-12-07T06:27:35;22.75;;;11.70;;
28766;SDS011;15921;52.034;20.650;2022-12-07T06:30:01;29.83;;;12.30;;
28766;SDS011;15921;52.034;20.650;2022-12-07T06:32:31;27.90;;;13.40;;
28766;SDS011;15921;52.034;20.650;2022-12-07T06:34:58;30.52;;;13.43;;
28766;SDS011;15921;52.034;20.650;2022-12-07T06:37:24;28.08;;;12.55;;
28766;SDS011;15921;52.034;20.650;2022-12-07T06:39:50;25.73;;;11.85;;
28766;SDS011;15921;52.034;20.650;2022-12-07T06:42:15;23.75;;;11.25;;
28766;SDS011;15921;52.034;20.650;2022-12-07T06:44:41;24.75;;;11.00;;
28766;SDS011;15921;52.034;20.650;2022-12-07T06:47:07;25.83;;;12.15;;
28766;SDS011;15921;52.034;20.650;2022-12-07T06:49:54;22.50;;;11.20;;
28766;SDS011;15921;52.034;20.650;2022-12-07T06:52:19;22.60;;;11.00;;
28766;SDS011;15921;52.034;20.650;2022-12-07T06:54:45;24.52;;;11.43;;
28766;SDS011;15921;52.034;20.650;2022-12-07T06:57:11;21.88;;;10.68;;
28766;SDS011;15921;52.034;20.650;2022-12-07T06:59:56;21.17;;;9.82;;
28766;SDS011;15921;52.034;20.650;2022-12-07T07:02:22;21.23;;;10.70;;
28766;SDS011;15921;52.034;20.650;2022-12-07T07:04:48;21.25;;;10.75;;
28766;SDS011;15921;52.034;20.650;2022-12-07T07:07:13;23.02;;;10.80;;
28766;SDS011;15921;52.034;20.650;2022-12-07T07:09:39;17.80;;;9.80;;
28766;SDS011;15921;52.034;20.650;2022-12-07T07:12:05;19.27;;;9.50;;
28766;SDS011;15921;52.034;20.650;2022-12-07T07:14:30;19.98;;;9.88;;
28766;SDS011;15921;52.034;20.650;2022-12-07T07:16:56;18.92;;;9.73;;
28766;SDS011;15921;52.034;20.650;2022-12-07T07:19:22;19.40;;;10.23;;
28766;SDS011;15921;52.034;20.650;2022-12-07T07:21:47;19.20;;;9.45;;
28766;SDS011;15921;52.034;20.650;2022-12-07T07:24:13;18.45;;;9.80;;
28766;SDS011;15921;52.034;20.650;2022-12-07T07:26:39;19.65;;;9.85;;
28766;SDS011;15921;52.034;20.650;2022-12-07T07:29:04;19.67;;;9.45;;
28766;SDS011;15921;52.034;20.650;2022-12-07T07:31:30;20.77;;;9.32;;
28766;SDS011;15921;52.034;20.650;2022-12-07T07:33:56;17.05;;;9.07;;
28766;SDS011;15921;52.034;20.650;2022-12-07T07:36:21;16.65;;;8.45;;
28766;SDS011;15921;52.034;20.650;2022-12-07T07:38:47;20.10;;;9.68;;
28766;SDS011;15921;52.034;20.650;2022-12-07T07:41:13;21.80;;;9.70;;
28766;SDS011;15921;52.034;20.650;2022-12-07T07:43:38;22.77;;;10.30;;
28766;SDS011;15921;52.034;20.650;2022-12-07T07:46:04;18.77;;;10.05;;
28766;SDS011;15921;52.034;20.650;2022-12-07T07:48:29;24.73;;;9.77;;
28766;SDS011;15921;52.034;20.650;2022-12-07T07:50:55;22.98;;;10.20;;
28766;SDS011;15921;52.034;20.650;2022-12-07T07:53:21;26.55;;;10.32;;
28766;SDS011;15921;52.034;20.650;2022-12-07T07:55:52;23.02;;;10.10;;
28766;SDS011;15921;52.034;20.650;2022-12-07T07:58:18;26.33;;;10.95;;
28766;SDS011;15921;52.034;20.650;2022-12-07T08:00:44;28.92;;;11.65;;
28766;SDS011;15921;52.034;20.650;2022-12-07T08:03:13;25.42;;;11.50;;
28766;SDS011;15921;52.034;20.650;2022-12-07T08:05:39;27.02;;;10.93;;
28766;SDS011;15921;52.034;20.650;2022-12-07T08:08:05;25.17;;;10.95;;
28766;SDS011;15921;52.034;20.650;2022-12-07T08:10:30;25.02;;;10.88;;
28766;SDS011;15921;52.034;20.650;2022-12-07T08:12:57;25.25;;;11.88;;
28766;SDS011;15921;52.034;20.650;2022-12-07T08:15:36;30.42;;;11.35;;
28766;SDS011;15921;52.034;20.650;2022-12-07T08:18:03;29.60;;;12.48;;
28766;SDS011;15921;52.034;20.650;2022-12-07T08:20:32;28.95;;;12.27;;
28766;SDS011;15921;52.034;20.650;2022-12-07T08:22:59;24.08;;;10.63;;
28766;SDS011;15921;52.034;20.650;2022-12-07T08:25:38;25.65;;;11.93;;
28766;SDS011;15921;52.034;20.650;2022-12-07T08:28:04;31.95;;;12.15;;
28766;SDS011;15921;52.034;20.650;2022-12-07T08:30:30;31.50;;;12.50;;
28766;SDS011;15921;52.034;20.650;2022-12-07T08:32:56;28.60;;;12.10;;
28766;SDS011;15921;52.034;20.650;2022-12-07T08:35:23;27.80;;;12.00;;
28766;SDS011;15921;52.034;20.650;2022-12-07T08:37:49;27.85;;;12.68;;
28766;SDS011;15921;52.034;20.650;2022-12-07T08:40:15;33.00;;;13.32;;
28766;SDS011;15921;52.034;20.650;2022-12-07T08:42:43;27.15;;;12.32;;
28766;SDS011;15921;52.034;20.650;2022-12-07T08:45:14;31.98;;;12.82;;
28766;SDS011;15921;52.034;20.650;2022-12-07T08:47:52;31.85;;;13.65;;
28766;SDS011;15921;52.034;20.650;2022-12-07T08:50:22;35.30;;;14.02;;
28766;SDS011;15921;52.034;20.650;2022-12-07T08:52:50;34.55;;;13.52;;
28766;SDS011;15921;52.034;20.650;2022-12-07T08:55:18;33.80;;;14.00;;
28766;SDS011;15921;52.034;20.650;2022-12-07T08:58:04;33.00;;;12.73;;
28766;SDS011;15921;52.034;20.650;2022-12-07T09:00:30;31.67;;;13.57;;
28766;SDS011;15921;52.034;20.650;2022-12-07T09:02:56;32.47;;;14.25;;
28766;SDS011;15921;52.034;20.650;2022-12-07T09:05:22;34.53;;;14.57;;
28766;SDS011;15921;52.034;20.650;2022-12-07T09:07:48;34.00;;;13.40;;
28766;SDS011;15921;52.034;20.650;2022-12-07T09:10:16;35.17;;;14.68;;
28766;SDS011;15921;52.034;20.650;2022-12-07T09:12:42;31.98;;;13.70;;
28766;SDS011;15921;52.034;20.650;2022-12-07T09:15:08;34.33;;;14.80;;
28766;SDS011;15921;52.034;20.650;2022-12-07T09:17:34;32.33;;;14.32;;
28766;SDS011;15921;52.034;20.650;2022-12-07T09:20:01;30.48;;;13.40;;
28766;SDS011;15921;52.034;20.650;2022-12-07T09:22:30;30.63;;;13.48;;
28766;SDS011;15921;52.034;20.650;2022-12-07T09:24:59;31.98;;;12.45;;
28766;SDS011;15921;52.034;20.650;2022-12-07T09:27:42;33.40;;;13.85;;
28766;SDS011;15921;52.034;20.650;2022-12-07T09:30:08;31.77;;;13.52;;
28766;SDS011;15921;52.034;20.650;2022-12-07T09:32:55;29.42;;;13.32;;
28766;SDS011;15921;52.034;20.650;2022-12-07T09:35:22;30.05;;;12.93;;
28766;SDS011;15921;52.034;20.650;2022-12-07T09:37:48;29.92;;;12.77;;
28766;SDS011;15921;52.034;20.650;2022-12-07T09:40:14;32.42;;;13.95;;
28766;SDS011;15921;52.034;20.650;2022-12-07T09:42:43;30.20;;;14.00;;
28766;SDS011;15921;52.034;20.650;2022-12-07T09:45:13;29.33;;;12.40;;
28766;SDS011;15921;52.034;20.650;2022-12-07T09:47:41;32.47;;;13.07;;
28766;SDS011;15921;52.034;20.650;2022-12-07T09:50:12;24.95;;;11.82;;
28766;SDS011;15921;52.034;20.650;2022-12-07T09:52:44;26.40;;;12.05;;
28766;SDS011;15921;52.034;20.650;2022-12-07T09:55:13;27.20;;;12.32;;
28766;SDS011;15921;52.034;20.650;2022-12-07T09:57:41;25.58;;;11.85;;
28766;SDS011;15921;52.034;20.650;2022-12-07T10:00:15;30.70;;;12.90;;
28766;SDS011;15921;52.034;20.650;2022-12-07T10:02:58;29.73;;;13.30;;
28766;SDS011;15921;52.034;20.650;2022-12-07T10:05:35;29.52;;;12.00;;
28766;SDS011;15921;52.034;20.650;2022-12-07T10:08:04;30.27;;;12.18;;
28766;SDS011;15921;52.034;20.650;2022-12-07T10:10:33;28.00;;;13.02;;
28766;SDS011;15921;52.034;20.650;2022-12-07T10:13:07;26.42;;;13.00;;
28766;SDS011;15921;52.034;20.650;2022-12-07T10:15:42;29.02;;;12.50;;
28766;SDS011;15921;52.034;20.650;2022-12-07T10:18:17;28.40;;;13.48;;
28766;SDS011;15921;52.034;20.650;2022-12-07T10:20:59;24.55;;;11.90;;
28766;SDS011;15921;52.034;20.650;2022-12-07T10:26:34;26.00;;;12.57;;
28766;SDS011;15921;52.034;20.650;2022-12-07T10:37:56;23.73;;;12.55;;
28766;SDS011;15921;52.034;20.650;2022-12-07T10:40:34;29.02;;;12.93;;
28766;SDS011;15921;52.034;20.650;2022-12-07T10:48:24;27.10;;;13.20;;
28766;SDS011;15921;52.034;20.650;2022-12-07T10:59:02;27.45;;;13.90;;
28766;SDS011;15921;52.034;20.650;2022-12-07T11:21:07;29.92;;;14.13;;
28766;SDS011;15921;52.034;20.650;2022-12-07T11:23:45;29.42;;;12.75;;
28766;SDS011;15921;52.034;20.650;2022-12-07T11:38:07;25.63;;;12.45;;
28766;SDS011;15921;52.034;20.650;2022-12-07T11:40:39;25.75;;;12.88;;
28766;SDS011;15921;52.034;20.650;2022-12-07T11:43:27;28.30;;;13.35;;
28766;SDS011;15921;52.034;20.650;2022-12-07T11:48:35;24.80;;;12.13;;
28766;SDS011;15921;52.034;20.650;2022-12-07T11:51:10;25.48;;;12.38;;
28766;SDS011;15921;52.034;20.650;2022-12-07T11:53:40;25.85;;;13.48;;
28766;SDS011;15921;52.034;20.650;2022-12-07T11:56:21;29.48;;;13.30;;
28766;SDS011;15921;52.034;20.650;2022-12-07T11:59:33;25.60;;;12.40;;
28766;SDS011;15921;52.034;20.650;2022-12-07T12:01:55;26.33;;;12.68;;
28766;SDS011;15921;52.034;20.650;2022-12-07T12:06:58;25.73;;;11.73;;
28766;SDS011;15921;52.034;20.650;2022-12-07T12:14:39;16.58;;;9.95;;
28766;SDS011;15921;52.034;20.650;2022-12-07T12:17:19;18.42;;;9.70;;
28766;SDS011;15921;52.034;20.650;2022-12-07T12:23:21;16.42;;;9.23;;
28766;SDS011;15921;52.034;20.650;2022-12-07T12:26:02;19.10;;;9.73;;
28766;SDS011;15921;52.034;20.650;2022-12-07T12:31:11;18.95;;;10.07;;
28766;SDS011;15921;52.034;20.650;2022-12-07T12:33:53;19.33;;;9.85;;
28766;SDS011;15921;52.034;20.650;2022-12-07T12:54:29;14.93;;;8.40;;
28766;SDS011;15921;52.034;20.650;2022-12-07T13:02:20;15.77;;;9.43;;
28766;SDS011;15921;52.034;20.650;2022-12-07T13:04:56;14.52;;;8.30;;
28766;SDS011;15921;52.034;20.650;2022-12-07T13:23:23;19.98;;;11.10;;
28766;SDS011;15921;52.034;20.650;2022-12-07T13:31:49;18.83;;;10.25;;
28766;SDS011;15921;52.034;20.650;2022-12-07T13:34:33;19.65;;;11.10;;
28766;SDS011;15921;52.034;20.650;2022-12-07T13:37:24;20.38;;;10.75;;
28766;SDS011;15921;52.034;20.650;2022-12-07T13:40:17;26.35;;;11.15;;
28766;SDS011;15921;52.034;20.650;2022-12-07T13:42:59;19.23;;;11.35;;
28766;SDS011;15921;52.034;20.650;2022-12-07T13:45:27;21.50;;;11.55;;
28766;SDS011;15921;52.034;20.650;2022-12-07T13:48:14;23.20;;;11.40;;
28766;SDS011;15921;52.034;20.650;2022-12-07T13:53:17;24.70;;;11.43;;
28766;SDS011;15921;52.034;20.650;2022-12-07T13:55:46;22.75;;;12.18;;
28766;SDS011;15921;52.034;20.650;2022-12-07T13:58:12;21.52;;;12.20;;
28766;SDS011;15921;52.034;20.650;2022-12-07T14:00:39;19.33;;;11.65;;
28766;SDS011;15921;52.034;20.650;2022-12-07T14:05:37;24.63;;;12.07;;
28766;SDS011;15921;52.034;20.650;2022-12-07T14:10:31;22.45;;;12.20;;
28766;SDS011;15921;52.034;20.650;2022-12-07T14:13:00;24.77;;;12.50;;
28766;SDS011;15921;52.034;20.650;2022-12-07T14:15:31;24.08;;;12.57;;
28766;SDS011;15921;52.034;20.650;2022-12-07T14:18:00;20.98;;;11.52;;
28766;SDS011;15921;52.034;20.650;2022-12-07T14:23:03;25.77;;;13.52;;
28766;SDS011;15921;52.034;20.650;2022-12-07T14:26:07;29.20;;;14.73;;
28766;SDS011;15921;52.034;20.650;2022-12-07T14:29:18;24.52;;;14.20;;
28766;SDS011;15921;52.034;20.650;2022-12-07T14:31:44;26.95;;;14.27;;
28766;SDS011;15921;52.034;20.650;2022-12-07T14:34:13;25.10;;;13.80;;
28766;SDS011;15921;52.034;20.650;2022-12-07T14:36:40;30.20;;;15.50;;
28766;SDS011;15921;52.034;20.650;2022-12-07T14:39:05;29.95;;;15.50;;
28766;SDS011;15921;52.034;20.650;2022-12-07T14:41:31;31.55;;;16.00;;
28766;SDS011;15921;52.034;20.650;2022-12-07T14:44:15;33.15;;;17.00;;
28766;SDS011;15921;52.034;20.650;2022-12-07T14:46:41;31.42;;;15.60;;
28766;SDS011;15921;52.034;20.650;2022-12-07T14:49:07;32.53;;;15.45;;
28766;SDS011;15921;52.034;20.650;2022-12-07T14:51:33;35.85;;;17.88;;
28766;SDS011;15921;52.034;20.650;2022-12-07T14:54:01;29.80;;;14.77;;
28766;SDS011;15921;52.034;20.650;2022-12-07T14:56:29;31.67;;;15.57;;
28766;SDS011;15921;52.034;20.650;2022-12-07T14:58:54;29.10;;;15.05;;
28766;SDS011;15921;52.034;20.650;2022-12-07T15:01:20;28.02;;;14.20;;
28766;SDS011;15921;52.034;20.650;2022-12-07T15:03:45;27.60;;;14.57;;
28766;SDS011;15921;52.034;20.650;2022-12-07T15:06:15;30.15;;;14.18;;
28766;SDS011;15921;52.034;20.650;2022-12-07T15:08:42;32.22;;;14.88;;
28766;SDS011;15921;52.034;20.650;2022-12-07T15:11:13;27.08;;;14.73;;
28766;SDS011;15921;52.034;20.650;2022-12-07T15:13:39;28.65;;;14.10;;
28766;SDS011;15921;52.034;20.650;2022-12-07T15:16:24;27.05;;;14.07;;
28766;SDS011;15921;52.034;20.650;2022-12-07T15:18:49;30.70;;;14.90;;
28766;SDS011;15921;52.034;20.650;2022-12-07T15:21:16;29.02;;;13.63;;
28766;SDS011;15921;52.034;20.650;2022-12-07T15:23:42;29.55;;;14.98;;
28766;SDS011;15921;52.034;20.650;2022-12-07T15:26:09;30.90;;;14.10;;
28766;SDS011;15921;52.034;20.650;2022-12-07T15:28:36;30.27;;;14.57;;
28766;SDS011;15921;52.034;20.650;2022-12-07T15:31:01;31.88;;;14.25;;
28766;SDS011;15921;52.034;20.650;2022-12-07T15:33:27;33.45;;;14.63;;
28766;SDS011;15921;52.034;20.650;2022-12-07T15:35:53;33.08;;;15.48;;
28766;SDS011;15921;52.034;20.650;2022-12-07T15:38:18;28.60;;;14.65;;
28766;SDS011;15921;52.034;20.650;2022-12-07T15:40:47;33.65;;;16.58;;
28766;SDS011;15921;52.034;20.650;2022-12-07T15:43:33;34.60;;;15.20;;
28766;SDS011;15921;52.034;20.650;2022-12-07T15:46:19;36.03;;;16.27;;
28766;SDS011;15921;52.034;20.650;2022-12-07T15:48:45;32.35;;;16.65;;
28766;SDS011;15921;52.034;20.650;2022-12-07T15:51:11;35.75;;;16.45;;
28766;SDS011;15921;52.034;20.650;2022-12-07T15:53:36;36.63;;;17.10;;
28766;SDS011;15921;52.034;20.650;2022-12-07T15:56:05;38.30;;;18.35;;
28766;SDS011;15921;52.034;20.650;2022-12-07T15:58:32;35.97;;;17.52;;
28766;SDS011;15921;52.034;20.650;2022-12-07T16:00:57;37.17;;;17.02;;
28766;SDS011;15921;52.034;20.650;2022-12-07T16:03:23;39.03;;;18.35;;
28766;SDS011;15921;52.034;20.650;2022-12-07T16:05:49;42.17;;;18.45;;
28766;SDS011;15921;52.034;20.650;2022-12-07T16:08:15;42.63;;;19.58;;
28766;SDS011;15921;52.034;20.650;2022-12-07T16:10:41;39.30;;;18.88;;
28766;SDS011;15921;52.034;20.650;2022-12-07T16:13:28;38.67;;;17.92;;
28766;SDS011;15921;52.034;20.650;2022-12-07T16:15:53;39.90;;;17.15;;
28766;SDS011;15921;52.034;20.650;2022-12-07T16:18:27;39.17;;;17.92;;
28766;SDS011;15921;52.034;20.650;2022-12-07T16:21:13;37.08;;;17.40;;
28766;SDS011;15921;52.034;20.650;2022-12-07T16:23:39;37.55;;;16.77;;
28766;SDS011;15921;52.034;20.650;2022-12-07T16:28:31;34.20;;;16.13;;
28766;SDS011;15921;52.034;20.650;2022-12-07T16:31:16;31.35;;;16.08;;
28766;SDS011;15921;52.034;20.650;2022-12-07T16:33:43;31.08;;;15.88;;
28766;SDS011;15921;52.034;20.650;2022-12-07T16:36:10;33.58;;;16.45;;
28766;SDS011;15921;52.034;20.650;2022-12-07T16:38:38;32.45;;;16.42;;
28766;SDS011;15921;52.034;20.650;2022-12-07T16:41:04;30.70;;;16.88;;
28766;SDS011;15921;52.034;20.650;2022-12-07T16:43:31;35.50;;;17.23;;
28766;SDS011;15921;52.034;20.650;2022-12-07T16:45:57;35.15;;;16.65;;
28766;SDS011;15921;52.034;20.650;2022-12-07T16:48:23;32.83;;;15.95;;
28766;SDS011;15921;52.034;20.650;2022-12-07T16:50:49;33.80;;;16.55;;
28766;SDS011;15921;52.034;20.650;2022-12-07T16:53:15;34.70;;;17.38;;
28766;SDS011;15921;52.034;20.650;2022-12-07T16:55:44;37.58;;;18.38;;
28766;SDS011;15921;52.034;20.650;2022-12-07T16:58:13;40.35;;;17.48;;
28766;SDS011;15921;52.034;20.650;2022-12-07T17:00:40;36.58;;;17.27;;
28766;SDS011;15921;52.034;20.650;2022-12-07T17:03:06;32.72;;;16.75;;
28766;SDS011;15921;52.034;20.650;2022-12-07T17:05:33;37.85;;;17.05;;
28766;SDS011;15921;52.034;20.650;2022-12-07T17:08:02;33.25;;;15.95;;
28766;SDS011;15921;52.034;20.650;2022-12-07T17:10:28;31.63;;;15.10;;
28766;SDS011;15921;52.034;20.650;2022-12-07T17:12:53;31.17;;;15.50;;
28766;SDS011;15921;52.034;20.650;2022-12-07T17:15:19;29.27;;;14.98;;